sensor_id;sensor_type;location;lat;lon;timestamp;P1;durP1;ratioP1;P2;durP2;ratioP2
30707;SDS011;17458;48.958;8.284;2022-09-30T00:01:20;7.55;;;5.65;;
30707;SDS011;17458;48.958;8.284;2022-09-30T00:04:05;7.32;;;5.97;;
30707;SDS011;17458;48.958;8.284;2022-09-30T00:06:50;6.90;;;5.72;;
30707;SDS011;17458;48.958;8.284;2022-09-30T00:09:35;6.82;;;5.18;;
30707;SDS011;17458;48.958;8.284;2022-09-30T00:12:26;11.93;;;6.18;;
30707;SDS011;17458;48.958;8.284;2022-09-30T00:15:10;9.18;;;6.65;;
30707;SDS011;17458;48.958;8.284;2022-09-30T00:17:53;14.32;;;6.82;;
30707;SDS011;17458;48.958;8.284;2022-09-30T00:20:38;18.15;;;7.07;;
30707;SDS011;17458;48.958;8.284;2022-09-30T00:23:22;13.48;;;8.10;;
30707;SDS011;17458;48.958;8.284;2022-09-30T00:26:09;11.60;;;7.03;;
30707;SDS011;17458;48.958;8.284;2022-09-30T00:28:55;16.85;;;7.60;;
30707;SDS011;17458;48.958;8.284;2022-09-30T00:31:41;8.63;;;7.40;;
30707;SDS011;17458;48.958;8.284;2022-09-30T00:34:26;9.48;;;6.78;;
30707;SDS011;17458;48.958;8.284;2022-09-30T00:37:10;16.40;;;6.75;;
30707;SDS011;17458;48.958;8.284;2022-09-30T00:39:57;10.57;;;6.85;;
30707;SDS011;17458;48.958;8.284;2022-09-30T00:42:41;9.10;;;6.50;;
30707;SDS011;17458;48.958;8.284;2022-09-30T00:45:26;8.68;;;7.65;;
30707;SDS011;17458;48.958;8.284;2022-09-30T00:48:15;9.43;;;6.75;;
30707;SDS011;17458;48.958;8.284;2022-09-30T00:51:02;8.93;;;6.75;;
30707;SDS011;17458;48.958;8.284;2022-09-30T00:53:53;11.77;;;7.18;;
30707;SDS011;17458;48.958;8.284;2022-09-30T00:56:41;9.30;;;6.65;;
30707;SDS011;17458;48.958;8.284;2022-09-30T00:59:37;10.13;;;6.70;;
30707;SDS011;17458;48.958;8.284;2022-09-30T01:02:25;10.40;;;7.22;;
30707;SDS011;17458;48.958;8.284;2022-09-30T01:05:09;8.30;;;6.63;;
30707;SDS011;17458;48.958;8.284;2022-09-30T01:07:55;11.55;;;7.35;;
30707;SDS011;17458;48.958;8.284;2022-09-30T01:10:41;9.38;;;6.43;;
30707;SDS011;17458;48.958;8.284;2022-09-30T01:13:25;6.68;;;5.80;;
30707;SDS011;17458;48.958;8.284;2022-09-30T01:16:28;9.60;;;6.38;;
30707;SDS011;17458;48.958;8.284;2022-09-30T01:25:24;6.70;;;5.95;;
30707;SDS011;17458;48.958;8.284;2022-09-30T01:31:48;6.78;;;5.97;;
30707;SDS011;17458;48.958;8.284;2022-09-30T01:38:04;8.10;;;6.43;;
30707;SDS011;17458;48.958;8.284;2022-09-30T01:44:15;8.48;;;5.70;;
30707;SDS011;17458;48.958;8.284;2022-09-30T01:55:52;11.05;;;6.45;;
30707;SDS011;17458;48.958;8.284;2022-09-30T01:58:52;8.75;;;7.03;;
30707;SDS011;17458;48.958;8.284;2022-09-30T02:01:48;8.82;;;7.57;;
30707;SDS011;17458;48.958;8.284;2022-09-30T02:04:41;8.18;;;7.07;;
30707;SDS011;17458;48.958;8.284;2022-09-30T02:07:38;12.50;;;7.18;;
30707;SDS011;17458;48.958;8.284;2022-09-30T02:10:37;6.80;;;6.13;;
30707;SDS011;17458;48.958;8.284;2022-09-30T02:13:29;8.15;;;6.30;;
30707;SDS011;17458;48.958;8.284;2022-09-30T02:16:21;10.90;;;7.00;;
30707;SDS011;17458;48.958;8.284;2022-09-30T02:19:13;13.00;;;6.65;;
30707;SDS011;17458;48.958;8.284;2022-09-30T02:22:10;7.78;;;6.93;;
30707;SDS011;17458;48.958;8.284;2022-09-30T02:25:00;12.77;;;7.63;;
30707;SDS011;17458;48.958;8.284;2022-09-30T02:27:50;9.88;;;7.65;;
30707;SDS011;17458;48.958;8.284;2022-09-30T02:30:40;11.52;;;8.15;;
30707;SDS011;17458;48.958;8.284;2022-09-30T02:33:34;10.85;;;7.45;;
30707;SDS011;17458;48.958;8.284;2022-09-30T02:36:26;9.20;;;7.50;;
30707;SDS011;17458;48.958;8.284;2022-09-30T02:39:18;9.25;;;7.10;;
30707;SDS011;17458;48.958;8.284;2022-09-30T02:42:10;8.05;;;6.65;;
30707;SDS011;17458;48.958;8.284;2022-09-30T02:45:03;8.80;;;7.10;;
30707;SDS011;17458;48.958;8.284;2022-09-30T02:48:00;11.48;;;7.22;;
30707;SDS011;17458;48.958;8.284;2022-09-30T02:54:02;13.80;;;7.63;;
30707;SDS011;17458;48.958;8.284;2022-09-30T02:57:16;9.63;;;7.13;;
30707;SDS011;17458;48.958;8.284;2022-09-30T03:00:09;12.13;;;8.05;;
30707;SDS011;17458;48.958;8.284;2022-09-30T03:02:55;12.80;;;7.63;;
30707;SDS011;17458;48.958;8.284;2022-09-30T03:05:44;10.48;;;6.53;;
30707;SDS011;17458;48.958;8.284;2022-09-30T03:08:28;12.45;;;6.78;;
30707;SDS011;17458;48.958;8.284;2022-09-30T03:11:16;9.75;;;7.07;;
30707;SDS011;17458;48.958;8.284;2022-09-30T03:26:16;7.50;;;5.65;;
30707;SDS011;17458;48.958;8.284;2022-09-30T03:29:08;7.43;;;5.88;;
30707;SDS011;17458;48.958;8.284;2022-09-30T03:35:15;11.55;;;6.25;;
30707;SDS011;17458;48.958;8.284;2022-09-30T03:44:23;8.77;;;5.95;;
30707;SDS011;17458;48.958;8.284;2022-09-30T03:47:24;7.78;;;6.72;;
30707;SDS011;17458;48.958;8.284;2022-09-30T03:50:13;8.45;;;6.60;;
30707;SDS011;17458;48.958;8.284;2022-09-30T03:53:00;6.57;;;5.93;;
30707;SDS011;17458;48.958;8.284;2022-09-30T03:55:50;7.00;;;6.30;;
30707;SDS011;17458;48.958;8.284;2022-09-30T03:58:35;10.63;;;6.35;;
30707;SDS011;17458;48.958;8.284;2022-09-30T04:01:24;7.28;;;6.25;;
30707;SDS011;17458;48.958;8.284;2022-09-30T04:04:08;13.20;;;6.68;;
30707;SDS011;17458;48.958;8.284;2022-09-30T04:06:52;8.85;;;6.95;;
30707;SDS011;17458;48.958;8.284;2022-09-30T04:09:36;11.05;;;7.53;;
30707;SDS011;17458;48.958;8.284;2022-09-30T04:12:21;15.23;;;7.43;;
30707;SDS011;17458;48.958;8.284;2022-09-30T04:15:05;10.93;;;6.68;;
30707;SDS011;17458;48.958;8.284;2022-09-30T04:17:50;9.85;;;7.53;;
30707;SDS011;17458;48.958;8.284;2022-09-30T04:20:33;7.45;;;6.28;;
30707;SDS011;17458;48.958;8.284;2022-09-30T04:23:17;8.23;;;6.32;;
30707;SDS011;17458;48.958;8.284;2022-09-30T04:26:02;7.50;;;6.70;;
30707;SDS011;17458;48.958;8.284;2022-09-30T04:28:46;9.02;;;6.55;;
30707;SDS011;17458;48.958;8.284;2022-09-30T04:31:30;11.27;;;6.53;;
30707;SDS011;17458;48.958;8.284;2022-09-30T04:34:14;8.52;;;6.55;;
30707;SDS011;17458;48.958;8.284;2022-09-30T04:36:58;11.85;;;6.50;;
30707;SDS011;17458;48.958;8.284;2022-09-30T04:39:42;12.27;;;7.32;;
30707;SDS011;17458;48.958;8.284;2022-09-30T04:42:26;16.27;;;7.78;;
30707;SDS011;17458;48.958;8.284;2022-09-30T04:45:13;11.25;;;8.15;;
30707;SDS011;17458;48.958;8.284;2022-09-30T04:47:57;10.55;;;8.07;;
30707;SDS011;17458;48.958;8.284;2022-09-30T04:50:41;9.80;;;7.43;;
30707;SDS011;17458;48.958;8.284;2022-09-30T04:53:26;13.90;;;8.20;;
30707;SDS011;17458;48.958;8.284;2022-09-30T04:56:10;9.82;;;7.28;;
30707;SDS011;17458;48.958;8.284;2022-09-30T04:58:55;11.20;;;8.32;;
30707;SDS011;17458;48.958;8.284;2022-09-30T05:01:40;10.02;;;8.40;;
30707;SDS011;17458;48.958;8.284;2022-09-30T05:04:26;12.05;;;9.63;;
30707;SDS011;17458;48.958;8.284;2022-09-30T05:07:10;10.25;;;8.02;;
30707;SDS011;17458;48.958;8.284;2022-09-30T05:09:54;10.57;;;8.23;;
30707;SDS011;17458;48.958;8.284;2022-09-30T05:12:38;11.50;;;9.10;;
30707;SDS011;17458;48.958;8.284;2022-09-30T05:15:25;14.90;;;8.05;;
30707;SDS011;17458;48.958;8.284;2022-09-30T05:18:10;14.10;;;9.07;;
30707;SDS011;17458;48.958;8.284;2022-09-30T05:20:55;15.18;;;9.25;;
30707;SDS011;17458;48.958;8.284;2022-09-30T05:23:40;9.68;;;8.52;;
30707;SDS011;17458;48.958;8.284;2022-09-30T05:26:24;20.83;;;9.35;;
30707;SDS011;17458;48.958;8.284;2022-09-30T05:29:08;24.45;;;11.55;;
30707;SDS011;17458;48.958;8.284;2022-09-30T05:31:53;12.52;;;9.68;;
30707;SDS011;17458;48.958;8.284;2022-09-30T05:34:37;15.07;;;10.25;;
30707;SDS011;17458;48.958;8.284;2022-09-30T05:37:21;17.65;;;10.35;;
30707;SDS011;17458;48.958;8.284;2022-09-30T05:40:06;15.57;;;9.82;;
30707;SDS011;17458;48.958;8.284;2022-09-30T05:42:51;13.30;;;9.07;;
30707;SDS011;17458;48.958;8.284;2022-09-30T05:45:35;13.18;;;10.00;;
30707;SDS011;17458;48.958;8.284;2022-09-30T05:48:19;15.73;;;8.82;;
30707;SDS011;17458;48.958;8.284;2022-09-30T05:51:03;21.98;;;9.45;;
30707;SDS011;17458;48.958;8.284;2022-09-30T05:53:48;15.98;;;9.75;;
30707;SDS011;17458;48.958;8.284;2022-09-30T05:56:32;18.35;;;10.13;;
30707;SDS011;17458;48.958;8.284;2022-09-30T05:59:17;13.40;;;9.73;;
30707;SDS011;17458;48.958;8.284;2022-09-30T06:02:02;11.27;;;7.97;;
30707;SDS011;17458;48.958;8.284;2022-09-30T06:04:47;14.55;;;8.30;;
30707;SDS011;17458;48.958;8.284;2022-09-30T06:07:33;13.68;;;8.15;;
30707;SDS011;17458;48.958;8.284;2022-09-30T06:10:18;13.55;;;7.82;;
30707;SDS011;17458;48.958;8.284;2022-09-30T06:13:02;11.07;;;7.70;;
30707;SDS011;17458;48.958;8.284;2022-09-30T06:16:00;15.63;;;7.03;;
30707;SDS011;17458;48.958;8.284;2022-09-30T06:18:44;15.85;;;6.30;;
30707;SDS011;17458;48.958;8.284;2022-09-30T06:21:29;8.85;;;7.25;;
30707;SDS011;17458;48.958;8.284;2022-09-30T06:24:12;9.77;;;6.53;;
30707;SDS011;17458;48.958;8.284;2022-09-30T06:26:57;7.65;;;6.53;;
30707;SDS011;17458;48.958;8.284;2022-09-30T06:29:41;11.63;;;7.70;;
30707;SDS011;17458;48.958;8.284;2022-09-30T06:32:25;10.55;;;7.65;;
30707;SDS011;17458;48.958;8.284;2022-09-30T06:35:09;12.35;;;9.05;;
30707;SDS011;17458;48.958;8.284;2022-09-30T06:37:53;22.50;;;10.27;;
30707;SDS011;17458;48.958;8.284;2022-09-30T06:40:37;17.38;;;10.23;;
30707;SDS011;17458;48.958;8.284;2022-09-30T06:43:21;16.33;;;11.18;;
30707;SDS011;17458;48.958;8.284;2022-09-30T06:46:05;18.95;;;10.57;;
30707;SDS011;17458;48.958;8.284;2022-09-30T06:48:53;18.85;;;9.57;;
30707;SDS011;17458;48.958;8.284;2022-09-30T06:51:38;12.55;;;9.73;;
30707;SDS011;17458;48.958;8.284;2022-09-30T06:54:22;21.70;;;10.48;;
30707;SDS011;17458;48.958;8.284;2022-09-30T06:57:07;24.50;;;11.63;;
30707;SDS011;17458;48.958;8.284;2022-09-30T06:59:51;22.42;;;10.40;;
30707;SDS011;17458;48.958;8.284;2022-09-30T07:02:34;16.65;;;10.30;;
30707;SDS011;17458;48.958;8.284;2022-09-30T07:05:19;15.40;;;10.77;;
30707;SDS011;17458;48.958;8.284;2022-09-30T07:08:03;17.85;;;13.00;;
30707;SDS011;17458;48.958;8.284;2022-09-30T07:10:48;25.25;;;13.27;;
30707;SDS011;17458;48.958;8.284;2022-09-30T07:13:32;22.85;;;15.57;;
30707;SDS011;17458;48.958;8.284;2022-09-30T07:16:18;19.77;;;14.63;;
30707;SDS011;17458;48.958;8.284;2022-09-30T07:19:04;22.55;;;14.73;;
30707;SDS011;17458;48.958;8.284;2022-09-30T07:21:50;28.60;;;16.63;;
30707;SDS011;17458;48.958;8.284;2022-09-30T07:24:34;25.30;;;16.17;;
30707;SDS011;17458;48.958;8.284;2022-09-30T07:27:19;32.92;;;17.90;;
30707;SDS011;17458;48.958;8.284;2022-09-30T07:30:04;26.48;;;17.48;;
30707;SDS011;17458;48.958;8.284;2022-09-30T07:32:48;22.40;;;17.88;;
30707;SDS011;17458;48.958;8.284;2022-09-30T07:35:33;24.60;;;17.40;;
30707;SDS011;17458;48.958;8.284;2022-09-30T07:38:17;22.77;;;16.77;;
30707;SDS011;17458;48.958;8.284;2022-09-30T07:41:04;20.73;;;16.05;;
30707;SDS011;17458;48.958;8.284;2022-09-30T07:43:59;19.67;;;15.48;;
30707;SDS011;17458;48.958;8.284;2022-09-30T07:46:43;26.25;;;17.55;;
30707;SDS011;17458;48.958;8.284;2022-09-30T07:49:28;18.08;;;13.82;;
30707;SDS011;17458;48.958;8.284;2022-09-30T07:52:12;15.88;;;12.48;;
30707;SDS011;17458;48.958;8.284;2022-09-30T07:54:57;20.70;;;14.30;;
30707;SDS011;17458;48.958;8.284;2022-09-30T07:57:41;22.45;;;15.57;;
30707;SDS011;17458;48.958;8.284;2022-09-30T08:00:25;17.10;;;13.32;;
30707;SDS011;17458;48.958;8.284;2022-09-30T08:03:09;17.83;;;13.23;;
30707;SDS011;17458;48.958;8.284;2022-09-30T08:05:53;24.77;;;12.90;;
30707;SDS011;17458;48.958;8.284;2022-09-30T08:08:38;25.73;;;13.02;;
30707;SDS011;17458;48.958;8.284;2022-09-30T08:11:22;19.35;;;12.82;;
30707;SDS011;17458;48.958;8.284;2022-09-30T08:14:10;15.27;;;11.43;;
30707;SDS011;17458;48.958;8.284;2022-09-30T08:16:57;15.38;;;10.57;;
30707;SDS011;17458;48.958;8.284;2022-09-30T08:19:42;19.17;;;11.50;;
30707;SDS011;17458;48.958;8.284;2022-09-30T08:22:27;12.25;;;10.45;;
30707;SDS011;17458;48.958;8.284;2022-09-30T08:25:11;26.23;;;12.20;;
30707;SDS011;17458;48.958;8.284;2022-09-30T08:27:55;16.02;;;12.75;;
30707;SDS011;17458;48.958;8.284;2022-09-30T08:30:39;14.57;;;11.43;;
30707;SDS011;17458;48.958;8.284;2022-09-30T08:33:23;27.63;;;11.80;;
30707;SDS011;17458;48.958;8.284;2022-09-30T08:36:09;14.75;;;9.75;;
30707;SDS011;17458;48.958;8.284;2022-09-30T08:38:55;13.55;;;10.10;;
30707;SDS011;17458;48.958;8.284;2022-09-30T08:41:44;13.50;;;10.00;;
30707;SDS011;17458;48.958;8.284;2022-09-30T08:44:38;10.50;;;8.70;;
30707;SDS011;17458;48.958;8.284;2022-09-30T08:47:32;9.18;;;7.38;;
30707;SDS011;17458;48.958;8.284;2022-09-30T08:53:40;10.65;;;8.02;;
30707;SDS011;17458;48.958;8.284;2022-09-30T08:56:28;13.57;;;8.45;;
30707;SDS011;17458;48.958;8.284;2022-09-30T08:59:19;12.07;;;8.02;;
30707;SDS011;17458;48.958;8.284;2022-09-30T09:02:26;13.15;;;7.63;;
30707;SDS011;17458;48.958;8.284;2022-09-30T09:05:16;12.40;;;8.60;;
30707;SDS011;17458;48.958;8.284;2022-09-30T09:08:12;13.13;;;8.57;;
30707;SDS011;17458;48.958;8.284;2022-09-30T09:11:01;9.55;;;8.32;;
30707;SDS011;17458;48.958;8.284;2022-09-30T09:14:02;13.93;;;9.60;;
30707;SDS011;17458;48.958;8.284;2022-09-30T09:16:50;10.52;;;9.38;;
30707;SDS011;17458;48.958;8.284;2022-09-30T09:19:43;8.90;;;7.88;;
30707;SDS011;17458;48.958;8.284;2022-09-30T09:22:48;20.05;;;8.27;;
30707;SDS011;17458;48.958;8.284;2022-09-30T09:25:34;12.88;;;8.55;;
30707;SDS011;17458;48.958;8.284;2022-09-30T09:31:26;11.55;;;8.65;;
30707;SDS011;17458;48.958;8.284;2022-09-30T09:34:10;14.30;;;8.90;;
30707;SDS011;17458;48.958;8.284;2022-09-30T09:37:00;10.63;;;8.52;;
30707;SDS011;17458;48.958;8.284;2022-09-30T09:40:08;12.45;;;8.90;;
30707;SDS011;17458;48.958;8.284;2022-09-30T09:43:10;12.80;;;8.82;;
30707;SDS011;17458;48.958;8.284;2022-09-30T09:46:06;16.55;;;8.55;;
30707;SDS011;17458;48.958;8.284;2022-09-30T09:49:13;13.95;;;9.00;;
30707;SDS011;17458;48.958;8.284;2022-09-30T09:54:55;16.45;;;10.70;;
30707;SDS011;17458;48.958;8.284;2022-09-30T09:57:39;11.65;;;9.07;;
30707;SDS011;17458;48.958;8.284;2022-09-30T10:00:24;19.42;;;9.13;;
30707;SDS011;17458;48.958;8.284;2022-09-30T10:03:27;13.05;;;8.73;;
30707;SDS011;17458;48.958;8.284;2022-09-30T10:06:11;12.55;;;8.68;;
30707;SDS011;17458;48.958;8.284;2022-09-30T10:08:55;11.35;;;8.35;;
30707;SDS011;17458;48.958;8.284;2022-09-30T10:11:40;10.63;;;8.55;;
30707;SDS011;17458;48.958;8.284;2022-09-30T10:14:24;11.25;;;8.88;;
30707;SDS011;17458;48.958;8.284;2022-09-30T10:17:11;15.75;;;8.60;;
30707;SDS011;17458;48.958;8.284;2022-09-30T10:20:16;13.80;;;8.68;;
30707;SDS011;17458;48.958;8.284;2022-09-30T10:23:19;11.13;;;8.80;;
30707;SDS011;17458;48.958;8.284;2022-09-30T10:26:18;14.70;;;9.25;;
30707;SDS011;17458;48.958;8.284;2022-09-30T10:29:08;9.93;;;8.43;;
30707;SDS011;17458;48.958;8.284;2022-09-30T10:32:08;11.60;;;9.15;;
30707;SDS011;17458;48.958;8.284;2022-09-30T10:34:59;11.05;;;8.75;;
30707;SDS011;17458;48.958;8.284;2022-09-30T10:37:50;14.68;;;9.30;;
30707;SDS011;17458;48.958;8.284;2022-09-30T10:40:36;16.95;;;8.95;;
30707;SDS011;17458;48.958;8.284;2022-09-30T10:43:25;12.02;;;8.02;;
30707;SDS011;17458;48.958;8.284;2022-09-30T10:46:19;11.68;;;8.07;;
30707;SDS011;17458;48.958;8.284;2022-09-30T10:52:18;16.23;;;8.85;;
30707;SDS011;17458;48.958;8.284;2022-09-30T10:55:06;14.75;;;10.07;;
30707;SDS011;17458;48.958;8.284;2022-09-30T11:01:31;17.23;;;7.15;;
30707;SDS011;17458;48.958;8.284;2022-09-30T11:04:24;10.48;;;7.53;;
30707;SDS011;17458;48.958;8.284;2022-09-30T11:07:22;13.38;;;8.90;;
30707;SDS011;17458;48.958;8.284;2022-09-30T11:22:19;23.08;;;10.13;;
30707;SDS011;17458;48.958;8.284;2022-09-30T11:25:15;12.63;;;7.18;;
30707;SDS011;17458;48.958;8.284;2022-09-30T11:28:14;11.55;;;7.43;;
30707;SDS011;17458;48.958;8.284;2022-09-30T11:31:17;13.45;;;7.32;;
30707;SDS011;17458;48.958;8.284;2022-09-30T11:37:28;10.88;;;7.40;;
30707;SDS011;17458;48.958;8.284;2022-09-30T11:40:53;8.48;;;7.10;;
30707;SDS011;17458;48.958;8.284;2022-09-30T11:47:17;11.10;;;6.93;;
30707;SDS011;17458;48.958;8.284;2022-09-30T11:50:30;7.88;;;6.97;;
30707;SDS011;17458;48.958;8.284;2022-09-30T11:53:28;14.00;;;6.95;;
30707;SDS011;17458;48.958;8.284;2022-09-30T11:56:26;10.38;;;7.30;;
30707;SDS011;17458;48.958;8.284;2022-09-30T11:59:55;13.35;;;6.43;;
30707;SDS011;17458;48.958;8.284;2022-09-30T12:05:31;9.50;;;6.88;;
30707;SDS011;17458;48.958;8.284;2022-09-30T12:08:28;9.38;;;5.72;;
30707;SDS011;17458;48.958;8.284;2022-09-30T12:11:17;7.47;;;6.15;;
30707;SDS011;17458;48.958;8.284;2022-09-30T12:14:09;11.73;;;5.93;;
30707;SDS011;17458;48.958;8.284;2022-09-30T12:17:01;7.15;;;5.75;;
30707;SDS011;17458;48.958;8.284;2022-09-30T12:19:54;9.95;;;6.05;;
30707;SDS011;17458;48.958;8.284;2022-09-30T12:22:42;8.43;;;6.10;;
30707;SDS011;17458;48.958;8.284;2022-09-30T12:25:36;13.32;;;6.00;;
30707;SDS011;17458;48.958;8.284;2022-09-30T12:34:54;7.30;;;5.68;;
30707;SDS011;17458;48.958;8.284;2022-09-30T12:44:37;8.85;;;5.13;;
30707;SDS011;17458;48.958;8.284;2022-09-30T12:47:39;8.65;;;4.72;;
30707;SDS011;17458;48.958;8.284;2022-09-30T12:50:31;11.10;;;4.93;;
30707;SDS011;17458;48.958;8.284;2022-09-30T12:53:24;6.53;;;3.88;;
30707;SDS011;17458;48.958;8.284;2022-09-30T12:56:12;6.57;;;4.68;;
30707;SDS011;17458;48.958;8.284;2022-09-30T12:58:58;6.78;;;4.57;;
30707;SDS011;17458;48.958;8.284;2022-09-30T13:01:43;6.35;;;4.63;;
30707;SDS011;17458;48.958;8.284;2022-09-30T13:04:28;11.20;;;5.43;;
30707;SDS011;17458;48.958;8.284;2022-09-30T13:07:19;9.48;;;4.18;;
30707;SDS011;17458;48.958;8.284;2022-09-30T13:13:27;6.13;;;4.10;;
30707;SDS011;17458;48.958;8.284;2022-09-30T13:16:15;10.02;;;4.95;;
30707;SDS011;17458;48.958;8.284;2022-09-30T13:19:38;5.60;;;3.60;;
30707;SDS011;17458;48.958;8.284;2022-09-30T13:22:40;6.20;;;4.00;;
30707;SDS011;17458;48.958;8.284;2022-09-30T13:25:25;6.20;;;3.55;;
30707;SDS011;17458;48.958;8.284;2022-09-30T13:31:12;3.95;;;3.25;;
30707;SDS011;17458;48.958;8.284;2022-09-30T13:45:20;7.90;;;3.13;;
30707;SDS011;17458;48.958;8.284;2022-09-30T13:48:19;8.07;;;4.80;;
30707;SDS011;17458;48.958;8.284;2022-09-30T13:51:10;4.22;;;2.92;;
30707;SDS011;17458;48.958;8.284;2022-09-30T13:53:59;5.18;;;2.72;;
30707;SDS011;17458;48.958;8.284;2022-09-30T13:56:51;9.55;;;3.38;;
30707;SDS011;17458;48.958;8.284;2022-09-30T13:59:56;6.93;;;3.60;;
30707;SDS011;17458;48.958;8.284;2022-09-30T14:03:06;8.20;;;2.95;;
30707;SDS011;17458;48.958;8.284;2022-09-30T14:06:06;8.38;;;3.20;;
30707;SDS011;17458;48.958;8.284;2022-09-30T14:18:35;3.83;;;3.22;;
30707;SDS011;17458;48.958;8.284;2022-09-30T14:24:28;3.42;;;2.80;;
30707;SDS011;17458;48.958;8.284;2022-09-30T14:33:08;3.67;;;2.72;;
30707;SDS011;17458;48.958;8.284;2022-09-30T14:35:56;5.72;;;2.83;;
30707;SDS011;17458;48.958;8.284;2022-09-30T14:38:50;3.78;;;3.17;;
30707;SDS011;17458;48.958;8.284;2022-09-30T14:41:37;4.93;;;3.47;;
30707;SDS011;17458;48.958;8.284;2022-09-30T14:44:25;2.83;;;2.63;;
30707;SDS011;17458;48.958;8.284;2022-09-30T14:47:14;7.55;;;3.25;;
30707;SDS011;17458;48.958;8.284;2022-09-30T14:50:00;3.95;;;2.60;;
30707;SDS011;17458;48.958;8.284;2022-09-30T14:52:46;7.88;;;2.22;;
30707;SDS011;17458;48.958;8.284;2022-09-30T14:55:35;4.97;;;2.60;;
30707;SDS011;17458;48.958;8.284;2022-09-30T14:58:27;9.57;;;2.60;;
30707;SDS011;17458;48.958;8.284;2022-09-30T15:01:16;9.45;;;3.65;;
30707;SDS011;17458;48.958;8.284;2022-09-30T15:04:05;5.32;;;2.70;;
30707;SDS011;17458;48.958;8.284;2022-09-30T15:06:58;8.73;;;2.95;;
30707;SDS011;17458;48.958;8.284;2022-09-30T15:09:46;10.85;;;3.33;;
30707;SDS011;17458;48.958;8.284;2022-09-30T15:12:33;4.03;;;2.60;;
30707;SDS011;17458;48.958;8.284;2022-09-30T15:18:21;6.28;;;3.28;;
30707;SDS011;17458;48.958;8.284;2022-09-30T15:21:12;7.45;;;2.92;;
30707;SDS011;17458;48.958;8.284;2022-09-30T15:23:58;8.85;;;2.95;;
30707;SDS011;17458;48.958;8.284;2022-09-30T15:26:43;5.53;;;3.28;;
30707;SDS011;17458;48.958;8.284;2022-09-30T15:29:30;8.82;;;2.58;;
30707;SDS011;17458;48.958;8.284;2022-09-30T15:32:14;6.55;;;3.70;;
30707;SDS011;17458;48.958;8.284;2022-09-30T15:35:11;7.28;;;3.53;;
30707;SDS011;17458;48.958;8.284;2022-09-30T15:38:09;7.10;;;2.30;;
30707;SDS011;17458;48.958;8.284;2022-09-30T15:41:14;10.63;;;6.93;;
30707;SDS011;17458;48.958;8.284;2022-09-30T15:43:59;9.50;;;3.92;;
30707;SDS011;17458;48.958;8.284;2022-09-30T15:47:06;5.95;;;2.78;;
30707;SDS011;17458;48.958;8.284;2022-09-30T15:49:51;4.40;;;3.05;;
30707;SDS011;17458;48.958;8.284;2022-09-30T15:52:36;7.10;;;2.47;;
30707;SDS011;17458;48.958;8.284;2022-09-30T16:01:13;17.90;;;3.88;;
30707;SDS011;17458;48.958;8.284;2022-09-30T16:03:59;4.30;;;3.05;;
30707;SDS011;17458;48.958;8.284;2022-09-30T16:06:54;6.97;;;3.67;;
30707;SDS011;17458;48.958;8.284;2022-09-30T16:09:41;13.65;;;4.18;;
30707;SDS011;17458;48.958;8.284;2022-09-30T16:12:26;6.95;;;3.97;;
30707;SDS011;17458;48.958;8.284;2022-09-30T16:15:15;16.27;;;6.38;;
30707;SDS011;17458;48.958;8.284;2022-09-30T16:17:59;18.17;;;5.63;;
30707;SDS011;17458;48.958;8.284;2022-09-30T16:20:54;13.20;;;4.25;;
30707;SDS011;17458;48.958;8.284;2022-09-30T16:23:48;6.93;;;3.38;;
30707;SDS011;17458;48.958;8.284;2022-09-30T16:26:32;25.95;;;11.57;;
30707;SDS011;17458;48.958;8.284;2022-09-30T16:29:16;13.23;;;6.85;;
30707;SDS011;17458;48.958;8.284;2022-09-30T16:32:01;30.58;;;11.60;;
30707;SDS011;17458;48.958;8.284;2022-09-30T16:34:45;13.65;;;5.80;;
30707;SDS011;17458;48.958;8.284;2022-09-30T16:37:29;8.20;;;4.07;;
30707;SDS011;17458;48.958;8.284;2022-09-30T16:40:23;6.28;;;3.10;;
30707;SDS011;17458;48.958;8.284;2022-09-30T16:43:09;7.40;;;3.45;;
30707;SDS011;17458;48.958;8.284;2022-09-30T16:45:54;4.95;;;2.97;;
30707;SDS011;17458;48.958;8.284;2022-09-30T16:48:39;7.13;;;3.63;;
30707;SDS011;17458;48.958;8.284;2022-09-30T16:51:23;11.82;;;6.57;;
30707;SDS011;17458;48.958;8.284;2022-09-30T16:54:08;17.40;;;8.68;;
30707;SDS011;17458;48.958;8.284;2022-09-30T16:56:52;20.65;;;9.30;;
30707;SDS011;17458;48.958;8.284;2022-09-30T16:59:36;6.38;;;3.75;;
30707;SDS011;17458;48.958;8.284;2022-09-30T17:02:20;31.90;;;12.75;;
30707;SDS011;17458;48.958;8.284;2022-09-30T17:05:04;14.32;;;7.30;;
30707;SDS011;17458;48.958;8.284;2022-09-30T17:07:53;17.83;;;8.40;;
30707;SDS011;17458;48.958;8.284;2022-09-30T17:10:43;54.53;;;26.45;;
30707;SDS011;17458;48.958;8.284;2022-09-30T17:13:30;62.88;;;27.98;;
30707;SDS011;17458;48.958;8.284;2022-09-30T17:16:14;25.90;;;11.98;;
30707;SDS011;17458;48.958;8.284;2022-09-30T17:18:58;65.10;;;29.05;;
30707;SDS011;17458;48.958;8.284;2022-09-30T17:21:41;34.22;;;16.55;;
30707;SDS011;17458;48.958;8.284;2022-09-30T17:24:25;48.65;;;21.88;;
30707;SDS011;17458;48.958;8.284;2022-09-30T17:27:09;31.25;;;16.05;;
30707;SDS011;17458;48.958;8.284;2022-09-30T17:29:53;37.05;;;17.05;;
30707;SDS011;17458;48.958;8.284;2022-09-30T17:32:38;26.35;;;14.05;;
30707;SDS011;17458;48.958;8.284;2022-09-30T17:35:22;26.83;;;13.77;;
30707;SDS011;17458;48.958;8.284;2022-09-30T17:38:10;8.93;;;5.13;;
30707;SDS011;17458;48.958;8.284;2022-09-30T17:40:55;7.75;;;6.10;;
30707;SDS011;17458;48.958;8.284;2022-09-30T17:43:58;11.35;;;5.53;;
30707;SDS011;17458;48.958;8.284;2022-09-30T17:46:44;37.80;;;19.48;;
30707;SDS011;17458;48.958;8.284;2022-09-30T17:49:35;36.05;;;19.63;;
30707;SDS011;17458;48.958;8.284;2022-09-30T17:52:19;21.48;;;12.63;;
30707;SDS011;17458;48.958;8.284;2022-09-30T17:55:04;17.48;;;9.30;;
30707;SDS011;17458;48.958;8.284;2022-09-30T17:57:48;8.82;;;5.38;;
30707;SDS011;17458;48.958;8.284;2022-09-30T18:00:32;26.08;;;12.10;;
30707;SDS011;17458;48.958;8.284;2022-09-30T18:03:16;28.25;;;12.68;;
30707;SDS011;17458;48.958;8.284;2022-09-30T18:06:02;15.52;;;7.38;;
30707;SDS011;17458;48.958;8.284;2022-09-30T18:08:47;24.95;;;12.50;;
30707;SDS011;17458;48.958;8.284;2022-09-30T18:11:32;10.73;;;6.93;;
30707;SDS011;17458;48.958;8.284;2022-09-30T18:14:16;11.65;;;5.00;;
30707;SDS011;17458;48.958;8.284;2022-09-30T18:17:03;12.13;;;6.15;;
30707;SDS011;17458;48.958;8.284;2022-09-30T18:19:48;7.90;;;5.18;;
30707;SDS011;17458;48.958;8.284;2022-09-30T18:22:32;8.52;;;4.70;;
30707;SDS011;17458;48.958;8.284;2022-09-30T18:25:16;13.00;;;7.40;;
30707;SDS011;17458;48.958;8.284;2022-09-30T18:28:03;20.05;;;7.43;;
30707;SDS011;17458;48.958;8.284;2022-09-30T18:30:52;13.10;;;7.20;;
30707;SDS011;17458;48.958;8.284;2022-09-30T18:33:36;18.90;;;8.88;;
30707;SDS011;17458;48.958;8.284;2022-09-30T18:36:20;18.00;;;6.75;;
30707;SDS011;17458;48.958;8.284;2022-09-30T18:39:04;9.75;;;6.35;;
30707;SDS011;17458;48.958;8.284;2022-09-30T18:41:48;14.80;;;7.72;;
30707;SDS011;17458;48.958;8.284;2022-09-30T18:44:32;18.33;;;9.25;;
30707;SDS011;17458;48.958;8.284;2022-09-30T18:47:20;20.40;;;9.00;;
30707;SDS011;17458;48.958;8.284;2022-09-30T18:50:04;18.98;;;7.80;;
30707;SDS011;17458;48.958;8.284;2022-09-30T18:52:49;13.32;;;6.57;;
30707;SDS011;17458;48.958;8.284;2022-09-30T18:55:36;22.15;;;10.13;;
30707;SDS011;17458;48.958;8.284;2022-09-30T18:58:20;13.35;;;7.40;;
30707;SDS011;17458;48.958;8.284;2022-09-30T19:01:04;13.43;;;7.80;;
30707;SDS011;17458;48.958;8.284;2022-09-30T19:03:50;10.52;;;6.47;;
30707;SDS011;17458;48.958;8.284;2022-09-30T19:06:35;13.15;;;5.57;;
30707;SDS011;17458;48.958;8.284;2022-09-30T19:09:20;8.20;;;5.60;;